Claysville, Ohio
Current Conditions -  °F | °C
As of 4:53 PM on Tuesday 21 Oct 2014 (Local Time) from KZZV Reporting Station
Overcast Overcast  
Wind Chill: 45°   Ceiling: 3700
Heat Index: 49°   Visibility: 10mi
Dew Point: 42°   Wind: 10mph
Humidity: 77%   Direction: 330°NNW
Pressure: 30.01"   Gusts: NA
Location:  40.0425°N, 81.6006°W
Report Text: KZZV 212053Z AUTO 33009KT 10SM SCT028 OVC037 09/06 A3001 RMK AO2 SLP164 60005 T00940056 53021
Loading
Personal Weather Stations






























Interactive Weather Map
Tropical Storm Tracking
New forecast layout! Learn more

10-Day Weather Forecast

Advertisements
Track Severe Weather on mobile